Time;durP1;ratioP1;P1;durP2;ratioP2;P2;SDS_P1;SDS_P2;PMS_P1;PMS_P2;Temp;Humidity;BMP_temperature;BMP_pressure;BME280_temperature;BME280_humidity;BME280_pressure;Samples;Min_cycle;Max_cycle;Signal;HPM_P1;HPM_P2
2022/09/21 00:00:33;;;;;;;10.48;5.28;;;11.10;99.90;;;;;;5014034;28;20041;-70
2022/09/21 00:03:00;;;;;;;9.50;5.38;;;11.10;99.90;;;;;;5014236;28;20477;-70
2022/09/21 00:05:25;;;;;;;14.63;4.97;;;10.80;99.90;;;;;;5014153;28;20080;-70
2022/09/21 00:07:51;;;;;;;13.00;5.60;;;11.00;99.90;;;;;;5014102;28;20118;-70
2022/09/21 00:10:19;;;;;;;15.48;6.35;;;11.10;99.90;;;;;;5014201;28;20041;-70
2022/09/21 00:12:47;;;;;;;7.28;4.85;;;11.10;99.90;;;;;;5013849;28;20029;-70
2022/09/21 00:15:16;;;;;;;6.05;4.55;;;10.90;99.90;;;;;;5014278;28;20486;-70
2022/09/21 00:17:43;;;;;;;10.82;5.07;;;10.80;99.90;;;;;;5014129;28;20034;-71
2022/09/21 00:20:08;;;;;;;12.00;6.20;;;10.70;99.90;;;;;;5012473;28;20034;-70
2022/09/21 00:22:35;;;;;;;7.65;5.20;;;10.50;99.90;;;;;;5013948;28;20363;-70
2022/09/21 00:25:02;;;;;;;11.93;5.78;;;10.50;99.90;;;;;;5016370;28;20025;-71
2022/09/21 00:27:31;;;;;;;11.40;6.05;;;10.60;99.90;;;;;;5033474;28;20017;-70
2022/09/21 00:30:02;;;;;;;10.93;5.87;;;10.60;99.90;;;;;;4992324;28;1198759;-71
2022/09/21 00:32:30;;;;;;;15.05;5.82;;;10.60;99.90;;;;;;5020380;28;20079;-70
2022/09/21 00:35:01;;;;;;;10.02;5.85;;;10.40;99.90;;;;;;5034333;28;20030;-70
2022/09/21 00:37:28;;;;;;;13.63;6.32;;;10.50;99.90;;;;;;5034618;28;20040;-70
2022/09/21 00:39:54;;;;;;;18.08;6.03;;;10.70;99.90;;;;;;5034359;28;20029;-70
2022/09/21 00:42:26;;;;;;;12.35;6.07;;;10.60;99.90;;;;;;5034423;28;20040;-70
2022/09/21 00:44:52;;;;;;;;;;;10.70;99.90;;;;;;5034570;28;20051;-70
2022/09/21 00:47:25;;;;;;;9.10;5.80;;;10.80;99.90;;;;;;5034422;28;19913;-70
2022/09/21 00:49:54;;;;;;;16.05;6.22;;;10.80;99.90;;;;;;5034190;28;20026;-70
2022/09/21 00:52:22;;;;;;;9.50;5.82;;;10.90;99.90;;;;;;5034369;28;20029;-71
2022/09/21 00:54:59;;;;;;;13.50;6.43;;;11.00;99.90;;;;;;5032985;28;20030;-70
2022/09/21 00:57:30;;;;;;;10.32;5.75;;;10.90;99.90;;;;;;4999317;28;20023;-70
2022/09/21 00:59:58;;;;;;;10.60;5.50;;;10.80;99.90;;;;;;5019610;28;20026;-70
2022/09/21 01:02:25;;;;;;;11.00;5.47;;;10.60;99.90;;;;;;5032770;28;20025;-70
2022/09/21 01:04:52;;;;;;;10.43;5.85;;;10.60;99.90;;;;;;5034007;28;20057;-70
2022/09/21 01:07:22;;;;;;;10.48;6.55;;;10.60;99.90;;;;;;5033755;28;20025;-70
2022/09/21 01:09:51;;;;;;;8.48;5.57;;;10.40;99.90;;;;;;5034215;28;20477;-70
2022/09/21 01:12:38;;;;;;;9.80;5.88;;;10.40;99.90;;;;;;5033952;28;20022;-70
2022/09/21 01:15:19;;;;;;;13.35;6.15;;;10.60;99.90;;;;;;5033762;28;20071;-70
2022/09/21 01:17:48;;;;;;;11.07;6.60;;;10.60;99.90;;;;;;5033338;28;20021;-70
2022/09/21 01:20:17;;;;;;;9.95;6.25;;;10.40;99.90;;;;;;5033447;28;20037;-70
2022/09/21 01:22:48;;;;;;;14.57;6.15;;;10.50;99.90;;;;;;5033681;28;20389;-70
2022/09/21 01:25:26;;;;;;;;;;;10.60;99.90;;;;;;5034138;28;20025;-71
2022/09/21 01:27:55;;;;;;;12.95;5.80;;;10.70;99.90;;;;;;5033554;28;19982;-71
2022/09/21 01:30:23;;;;;;;10.82;5.22;;;10.40;99.90;;;;;;5033256;28;20452;-70
2022/09/21 01:33:05;;;;;;;14.05;5.10;;;9.90;99.90;;;;;;5033009;28;20043;-70
2022/09/21 01:35:36;;;;;;;10.15;6.55;;;9.90;99.90;;;;;;5032224;28;20036;-70
2022/09/21 01:38:09;;;;;;;14.03;5.77;;;10.00;99.90;;;;;;5033332;28;20104;-70
2022/09/21 01:40:42;;;;;;;10.10;5.55;;;9.90;99.90;;;;;;5033150;28;20052;-70
2022/09/21 01:43:12;;;;;;;14.73;5.93;;;9.70;99.90;;;;;;5033398;28;20059;-70
2022/09/21 01:45:44;;;;;;;11.60;6.53;;;9.60;99.90;;;;;;5033061;28;20056;-70
2022/09/21 01:48:10;;;;;;;;;;;9.60;99.90;;;;;;5033631;28;20024;-70
2022/09/21 01:50:43;;;;;;;10.00;6.07;;;9.70;99.90;;;;;;5033129;28;19916;-70
2022/09/21 01:53:30;;;;;;;8.80;5.80;;;9.70;99.90;;;;;;5032930;28;20025;-70
2022/09/21 01:56:09;;;;;;;7.55;5.30;;;9.90;99.90;;;;;;5031841;28;20429;-70
2022/09/21 01:58:58;;;;;;;13.82;6.43;;;10.00;99.90;;;;;;5033082;28;20116;-70
2022/09/21 02:01:29;;;;;;;12.05;5.93;;;10.20;99.90;;;;;;5032827;28;20113;-70
2022/09/21 02:04:07;;;;;;;13.65;5.70;;;10.40;99.90;;;;;;5033672;28;20101;-70
2022/09/21 02:06:33;;;;;;;11.90;6.72;;;10.50;99.90;;;;;;5031712;28;20473;-70
2022/09/21 02:08:59;;;;;;;8.77;5.80;;;10.40;99.90;;;;;;5005575;28;20017;-70
2022/09/21 02:11:25;;;;;;;15.07;5.97;;;10.50;99.90;;;;;;5032820;28;20033;-70
2022/09/21 02:13:53;;;;;;;11.23;6.05;;;10.60;99.90;;;;;;5032762;28;20028;-70
2022/09/21 02:16:34;;;;;;;13.52;6.03;;;10.40;99.90;;;;;;5032476;28;20485;-70
2022/09/21 02:19:01;;;;;;;12.38;5.80;;;10.40;99.90;;;;;;5032777;28;20026;-70
2022/09/21 02:21:57;;;;;;;17.05;5.82;;;10.50;99.90;;;;;;5032960;28;20034;-70
2022/09/21 02:24:46;;;;;;;10.57;5.85;;;10.40;99.90;;;;;;5032907;28;20384;-70
2022/09/21 02:27:40;;;;;;;6.53;5.20;;;10.00;99.90;;;;;;5032713;28;20363;-70
2022/09/21 02:30:06;;;;;;;12.75;5.68;;;9.80;99.90;;;;;;5031247;28;20486;-70
2022/09/21 02:32:50;;;;;;;11.02;5.75;;;9.80;99.90;;;;;;5031468;28;20121;-70
2022/09/21 02:35:47;;;;;;;11.63;5.35;;;10.10;99.90;;;;;;5032619;28;20474;-70
2022/09/21 02:38:53;;;;;;;10.52;5.63;;;9.90;99.90;;;;;;5024501;28;20468;-70
2022/09/21 02:41:26;;;;;;;9.35;5.70;;;10.00;99.90;;;;;;5032475;28;20041;-71
2022/09/21 02:44:17;;;;;;;9.70;6.00;;;10.10;99.90;;;;;;5032301;28;20030;-71
2022/09/21 02:47:06;;;;;;;7.53;5.32;;;10.10;99.90;;;;;;5032265;28;20028;-70
2022/09/21 02:49:41;;;;;;;11.15;5.80;;;10.20;99.90;;;;;;5032120;28;20088;-70
2022/09/21 02:52:12;;;;;;;7.53;4.97;;;10.20;99.90;;;;;;5032444;28;20045;-70
2022/09/21 02:54:39;;;;;;;;;;;10.20;99.90;;;;;;5032868;28;20053;-70
2022/09/21 02:57:06;;;;;;;8.77;5.05;;;10.10;99.90;;;;;;5032436;28;19940;-70
2022/09/21 02:59:32;;;;;;;8.27;5.55;;;10.00;99.90;;;;;;5014504;28;20104;-70
2022/09/21 03:01:58;;;;;;;8.10;5.35;;;10.10;99.90;;;;;;5031133;28;20106;-70
2022/09/21 03:04:24;;;;;;;11.05;5.95;;;10.30;99.90;;;;;;5032638;28;20025;-70
2022/09/21 03:06:50;;;;;;;11.68;6.97;;;10.60;99.90;;;;;;5032187;28;20029;-70
2022/09/21 03:09:16;;;;;;;14.40;6.45;;;10.80;99.90;;;;;;5032346;28;20029;-70
2022/09/21 03:11:42;;;;;;;9.55;5.40;;;10.80;99.90;;;;;;5032158;28;20406;-70
2022/09/21 03:14:07;;;;;;;11.90;5.50;;;10.30;99.90;;;;;;5030864;28;20028;-70
2022/09/21 03:16:34;;;;;;;6.90;5.05;;;9.90;99.90;;;;;;5032145;28;20063;-70
2022/09/21 03:19:00;;;;;;;10.95;6.25;;;10.00;99.90;;;;;;5032195;28;20076;-70
2022/09/21 03:21:26;;;;;;;10.38;6.63;;;9.70;99.90;;;;;;5032191;28;20417;-70
2022/09/21 03:23:52;;;;;;;9.63;6.65;;;9.60;99.90;;;;;;5033943;28;20398;-70
2022/09/21 03:26:21;;;;;;;9.88;6.80;;;9.80;99.90;;;;;;5035890;28;20075;-70
2022/09/21 03:28:48;;;;;;;11.80;7.28;;;10.10;99.90;;;;;;5035190;28;20068;-70
2022/09/21 03:31:14;;;;;;;9.13;6.43;;;10.10;99.90;;;;;;5035796;28;20064;-70
2022/09/21 03:33:40;;;;;;;14.00;6.45;;;10.10;99.90;;;;;;5035587;28;20375;-70
2022/09/21 03:36:06;;;;;;;14.25;6.90;;;9.80;99.90;;;;;;5035430;28;20080;-70
2022/09/21 03:38:33;;;;;;;15.32;6.85;;;9.70;99.90;;;;;;5034630;28;20067;-71
2022/09/21 03:40:59;;;;;;;15.73;7.22;;;9.70;99.90;;;;;;5035543;28;20041;-70
2022/09/21 03:43:25;;;;;;;13.18;6.68;;;9.70;99.90;;;;;;5035134;28;20044;-70
2022/09/21 03:45:51;;;;;;;10.45;6.25;;;9.80;99.90;;;;;;5035628;28;20033;-70
2022/09/21 03:48:17;;;;;;;12.13;6.60;;;10.20;99.90;;;;;;5035387;28;20116;-70
2022/09/21 03:50:43;;;;;;;14.02;6.70;;;10.20;99.90;;;;;;5035492;28;20136;-70
2022/09/21 03:53:09;;;;;;;12.52;7.40;;;10.00;99.90;;;;;;5035153;28;20570;-70
2022/09/21 03:55:35;;;;;;;10.80;6.68;;;10.30;99.90;;;;;;5035588;28;20021;-70
2022/09/21 03:58:01;;;;;;;14.15;7.15;;;10.50;99.90;;;;;;5034900;28;20048;-70
2022/09/21 04:00:28;;;;;;;11.98;7.07;;;10.30;99.90;;;;;;5035151;28;20025;-70
2022/09/21 04:02:54;;;;;;;15.88;6.55;;;10.10;99.90;;;;;;5035178;28;20490;-70
2022/09/21 04:05:20;;;;;;;13.40;7.32;;;10.30;99.90;;;;;;5035297;28;20020;-71
2022/09/21 04:07:46;;;;;;;8.90;6.47;;;10.20;99.90;;;;;;5034999;28;20039;-70
2022/09/21 04:10:15;;;;;;;11.25;6.43;;;10.40;99.90;;;;;;5035145;28;20033;-70
2022/09/21 04:12:42;;;;;;;12.85;6.85;;;10.60;99.90;;;;;;5034577;28;20021;-69
2022/09/21 04:15:14;;;;;;;8.88;6.55;;;10.70;99.90;;;;;;5034709;28;20031;-70
2022/09/21 04:17:40;;;;;;;12.50;6.88;;;10.20;99.90;;;;;;5034912;28;20022;-70
2022/09/21 04:20:07;;;;;;;12.38;6.97;;;10.30;99.90;;;;;;5034671;28;20088;-71
2022/09/21 04:22:35;;;;;;;10.00;6.45;;;10.40;99.90;;;;;;5034597;28;20025;-70
2022/09/21 04:25:05;;;;;;;11.13;7.20;;;10.30;99.90;;;;;;5034288;28;20025;-70
2022/09/21 04:27:31;;;;;;;9.07;6.45;;;10.40;99.90;;;;;;5034639;28;20116;-70
2022/09/21 04:29:58;;;;;;;14.88;7.03;;;10.40;99.90;;;;;;5034440;28;20113;-71
2022/09/21 04:32:23;;;;;;;12.32;6.57;;;10.00;99.90;;;;;;5034409;28;20041;-70
2022/09/21 04:34:49;;;;;;;13.23;6.72;;;10.00;99.90;;;;;;5033371;28;20060;-70
2022/09/21 04:37:15;;;;;;;15.00;7.80;;;10.20;99.90;;;;;;5034316;28;20037;-71
2022/09/21 04:39:41;;;;;;;22.65;7.47;;;10.40;99.90;;;;;;5033948;28;20552;-70
2022/09/21 04:42:08;;;;;;;14.98;7.72;;;10.40;99.90;;;;;;5034286;28;20032;-70
2022/09/21 04:44:33;;;;;;;10.88;7.68;;;10.50;99.90;;;;;;5033993;28;20039;-70
2022/09/21 04:46:59;;;;;;;16.10;7.00;;;10.50;99.90;;;;;;5034350;28;20096;-70
2022/09/21 04:49:25;;;;;;;17.25;7.38;;;10.00;99.90;;;;;;5034271;28;20425;-70
2022/09/21 04:51:51;;;;;;;12.77;7.60;;;10.00;99.90;;;;;;5034041;28;20093;-70
2022/09/21 04:54:17;;;;;;;14.23;7.28;;;10.20;99.90;;;;;;5033841;28;20381;-70
2022/09/21 04:56:42;;;;;;;14.40;8.05;;;10.20;99.90;;;;;;5034123;28;20025;-70
2022/09/21 04:59:08;;;;;;;10.77;7.38;;;10.20;99.90;;;;;;5033801;28;20031;-70
2022/09/21 05:01:34;;;;;;;28.70;7.57;;;10.10;99.90;;;;;;5032858;28;20037;-70
2022/09/21 05:04:03;;;;;;;16.85;7.55;;;9.90;99.90;;;;;;5033866;28;20021;-71
2022/09/21 05:06:30;;;;;;;16.65;7.20;;;9.80;99.90;;;;;;5034141;28;20033;-70
2022/09/21 05:11:40;;;;;;;19.98;7.45;;;9.90;99.90;;;;;;5032612;28;20029;-68
2022/09/21 05:14:06;;;;;;;10.93;6.60;;;9.70;99.90;;;;;;5033282;28;20378;-70
2022/09/21 05:16:32;;;;;;;13.00;7.30;;;9.60;99.90;;;;;;5032310;28;20183;-71
2022/09/21 05:18:58;;;;;;;14.68;7.60;;;9.40;99.90;;;;;;5033503;28;20111;-68
2022/09/21 05:21:24;;;;;;;15.75;6.82;;;9.50;99.90;;;;;;5033731;28;20037;-70
2022/09/21 05:23:50;;;;;;;19.30;8.45;;;9.70;99.90;;;;;;5033231;28;20421;-70
2022/09/21 05:26:15;;;;;;;18.45;8.35;;;10.00;99.90;;;;;;5033415;28;20482;-69
2022/09/21 05:28:41;;;;;;;19.48;9.90;;;10.20;99.90;;;;;;5033201;28;20025;-68
2022/09/21 05:31:19;;;;;;;13.40;7.47;;;10.40;99.90;;;;;;5026053;28;20474;-71
2022/09/21 05:34:11;;;;;;;19.70;7.72;;;10.40;99.90;;;;;;5033224;28;20044;-68
2022/09/21 05:36:49;;;;;;;19.30;7.68;;;10.10;99.90;;;;;;5031736;28;20026;-70
2022/09/21 05:39:15;;;;;;;13.65;7.40;;;10.10;99.90;;;;;;5032998;28;20030;-70
2022/09/21 05:41:41;;;;;;;18.65;7.47;;;9.90;99.90;;;;;;5032115;28;20041;-70
2022/09/21 05:44:12;;;;;;;14.25;7.43;;;9.50;99.90;;;;;;5033145;28;20032;-70
2022/09/21 05:47:01;;;;;;;12.60;7.88;;;9.60;99.90;;;;;;5032811;28;20021;-70
2022/09/21 05:49:53;;;;;;;18.15;8.23;;;9.70;99.90;;;;;;5032997;28;20135;-70
2022/09/21 05:52:32;;;;;;;18.70;8.05;;;10.20;99.90;;;;;;5033026;28;20056;-70
2022/09/21 05:55:19;;;;;;;21.52;8.38;;;10.20;99.90;;;;;;5032793;28;20128;-71
2022/09/21 05:58:03;;;;;;;16.83;7.53;;;10.30;99.90;;;;;;5032103;28;20458;-70
2022/09/21 06:00:44;;;;;;;25.73;9.40;;;10.30;99.90;;;;;;5032758;28;20034;-70
2022/09/21 06:03:28;;;;;;;16.38;8.27;;;10.40;99.90;;;;;;5032873;28;20453;-69
2022/09/21 06:05:54;;;;;;;15.73;7.45;;;10.50;99.90;;;;;;5031570;28;20160;-70
2022/09/21 06:08:20;;;;;;;16.63;6.72;;;10.40;99.90;;;;;;5005964;28;20045;-69
2022/09/21 06:10:47;;;;;;;19.15;7.70;;;10.30;99.90;;;;;;5021745;28;20156;-69
2022/09/21 06:13:13;;;;;;;15.60;7.82;;;10.40;99.90;;;;;;5015493;28;20026;-70
2022/09/21 06:15:39;;;;;;;16.73;7.70;;;10.60;99.90;;;;;;5017861;28;20474;-70
2022/09/21 06:18:06;;;;;;;16.48;8.48;;;10.40;99.90;;;;;;5015412;28;20025;-70
2022/09/21 06:20:32;;;;;;;19.33;8.38;;;10.40;99.90;;;;;;5014137;28;20048;-70
2022/09/21 06:23:09;;;;;;;23.00;9.07;;;10.50;99.90;;;;;;5019195;28;20572;-69
2022/09/21 06:25:35;;;;;;;39.65;9.52;;;10.70;99.90;;;;;;5012860;28;20033;-70
2022/09/21 06:28:03;;;;;;;20.75;7.85;;;10.90;99.90;;;;;;5016808;28;20486;-69
2022/09/21 06:30:32;;;;;;;30.17;10.38;;;10.80;99.90;;;;;;5020195;28;20037;-70
2022/09/21 06:32:59;;;;;;;29.77;9.25;;;11.20;99.90;;;;;;5016672;28;20034;-70
2022/09/21 06:35:26;;;;;;;27.65;10.80;;;11.30;99.90;;;;;;5031507;28;20080;-69
2022/09/21 06:37:55;;;;;;;20.08;8.82;;;11.40;99.90;;;;;;5021465;28;20022;-70
2022/09/21 06:40:21;;;;;;;18.15;8.82;;;11.60;99.90;;;;;;5016631;28;20050;-67
2022/09/21 06:42:47;;;;;;;32.80;9.13;;;11.80;99.90;;;;;;5017916;28;20010;-69
2022/09/21 06:45:13;;;;;;;24.27;8.25;;;11.90;99.90;;;;;;5031669;28;20482;-70
2022/09/21 06:47:38;;;;;;;27.65;7.43;;;12.10;99.90;;;;;;5026040;28;20375;-70
2022/09/21 06:50:05;;;;;;;17.15;7.35;;;12.20;99.90;;;;;;5030001;28;20532;-69
2022/09/21 06:52:30;;;;;;;22.35;7.35;;;12.30;99.90;;;;;;5030012;28;20033;-70
2022/09/21 06:54:56;;;;;;;20.10;7.45;;;12.20;99.90;;;;;;5029135;28;20065;-69
2022/09/21 06:57:22;;;;;;;18.75;6.95;;;12.10;99.90;;;;;;5014042;28;20037;-70
2022/09/21 06:59:48;;;;;;;16.25;7.07;;;12.30;99.90;;;;;;5018786;28;20044;-69
2022/09/21 07:02:14;;;;;;;12.68;7.20;;;12.30;99.90;;;;;;5017868;28;20033;-70
2022/09/21 07:04:40;;;;;;;17.67;7.30;;;12.50;99.90;;;;;;5024447;28;20018;-70
2022/09/21 07:07:06;;;;;;;16.50;7.28;;;12.40;99.90;;;;;;5015385;28;20018;-69
2022/09/21 07:09:31;;;;;;;18.63;8.40;;;12.80;99.90;;;;;;5009602;28;20403;-70
2022/09/21 07:11:57;;;;;;;20.30;7.97;;;12.60;99.90;;;;;;5016343;28;20026;-70
2022/09/21 07:14:23;;;;;;;24.00;7.97;;;12.40;99.90;;;;;;5023824;28;20034;-70
2022/09/21 07:16:49;;;;;;;23.27;8.55;;;12.60;99.90;;;;;;5024042;28;20041;-70
2022/09/21 07:19:14;;;;;;;18.25;7.47;;;12.70;99.90;;;;;;5014527;28;20077;-70
2022/09/21 07:21:40;;;;;;;18.13;8.32;;;12.80;99.90;;;;;;5017918;28;20029;-70
2022/09/21 07:24:06;;;;;;;22.38;8.70;;;12.80;99.90;;;;;;5015147;28;20026;-70
2022/09/21 07:26:33;;;;;;;32.60;8.70;;;13.00;99.90;;;;;;5024126;28;20054;-71
2022/09/21 07:28:58;;;;;;;18.63;8.13;;;13.20;99.90;;;;;;5020882;28;20025;-65
2022/09/21 07:31:24;;;;;;;18.48;8.20;;;13.20;99.90;;;;;;5015032;28;20382;-70
2022/09/21 07:33:56;;;;;;;21.75;8.13;;;13.20;99.90;;;;;;5024135;28;20033;-71
2022/09/21 07:36:23;;;;;;;20.33;6.95;;;13.30;99.90;;;;;;5034269;28;20496;-70
2022/09/21 07:38:48;;;;;;;27.77;8.43;;;13.40;99.90;;;;;;5035487;28;20025;-70
2022/09/21 07:41:14;;;;;;;28.50;8.15;;;13.40;99.90;;;;;;5034362;28;20033;-70
2022/09/21 07:43:40;;;;;;;31.30;8.10;;;13.50;99.90;;;;;;5035528;28;20462;-70
2022/09/21 07:46:08;;;;;;;25.42;9.35;;;13.40;99.90;;;;;;5035511;28;20034;-70
2022/09/21 07:48:33;;;;;;;22.98;7.07;;;13.60;99.90;;;;;;5035113;28;20014;-70
2022/09/21 07:51:06;;;;;;;16.60;7.28;;;13.80;99.90;;;;;;5035535;28;20026;-70
2022/09/21 07:53:36;;;;;;;24.33;8.30;;;14.00;99.90;;;;;;5035035;28;20133;-70
2022/09/21 07:56:05;;;;;;;25.00;8.00;;;14.20;99.90;;;;;;5026873;28;20438;-68
2022/09/21 08:01:15;;;;;;;21.45;7.57;;;14.40;99.90;;;;;;5008806;28;20473;-70
2022/09/21 08:03:41;;;;;;;30.35;8.30;;;14.30;99.90;;;;;;5015332;28;20093;-70
2022/09/21 08:06:08;;;;;;;25.27;7.97;;;14.50;99.90;;;;;;5019563;28;20083;-70
2022/09/21 08:08:34;;;;;;;17.95;6.70;;;14.50;99.90;;;;;;5016960;28;20034;-69
2022/09/21 08:11:05;;;;;;;15.98;5.95;;;14.40;99.90;;;;;;5013605;28;20105;-69
2022/09/21 08:13:31;;;;;;;19.23;6.22;;;14.60;99.90;;;;;;5022078;28;20032;-70
2022/09/21 08:15:58;;;;;;;20.33;5.97;;;14.80;99.90;;;;;;5014824;28;20038;-70
2022/09/21 08:18:24;;;;;;;15.85;5.63;;;14.90;99.90;;;;;;5018160;28;20026;-70
2022/09/21 08:20:54;;;;;;;18.50;6.05;;;14.90;99.90;;;;;;5016329;28;20045;-70
2022/09/21 08:23:20;;;;;;;20.73;6.47;;;15.00;99.90;;;;;;5014931;28;20124;-70
2022/09/21 08:25:46;;;;;;;15.02;4.60;;;15.00;99.90;;;;;;5016089;28;20049;-70
2022/09/21 08:28:13;;;;;;;16.73;5.20;;;15.10;99.90;;;;;;5014035;28;20068;-70
2022/09/21 08:30:40;;;;;;;20.52;5.53;;;15.10;99.90;;;;;;5025111;28;20033;-70
2022/09/21 08:33:07;;;;;;;16.00;5.65;;;15.50;99.90;;;;;;5027556;28;20044;-70
2022/09/21 08:35:35;;;;;;;15.25;6.30;;;15.70;99.90;;;;;;5033508;28;20040;-70
2022/09/21 08:38:01;;;;;;;15.55;6.00;;;15.60;99.90;;;;;;5033611;28;20484;-70
2022/09/21 08:40:27;;;;;;;17.65;5.40;;;15.60;99.90;;;;;;5032003;28;20040;-70
2022/09/21 08:42:55;;;;;;;19.58;4.57;;;15.80;99.90;;;;;;5033504;28;20549;-69
2022/09/21 08:45:27;;;;;;;16.80;4.25;;;15.80;99.90;;;;;;5033468;28;20025;-70
2022/09/21 08:47:57;;;;;;;19.00;5.03;;;16.10;99.90;;;;;;5033095;28;20355;-69
2022/09/21 08:50:54;;;;;;;16.30;4.10;;;16.30;99.90;;;;;;5033011;28;20029;-70
2022/09/21 08:53:44;;;;;;;11.30;4.50;;;16.30;99.90;;;;;;5033115;28;20036;-70
2022/09/21 08:56:12;;;;;;;13.18;4.47;;;16.50;99.90;;;;;;5032674;28;20422;-69
2022/09/21 08:58:41;;;;;;;13.13;4.65;;;16.50;99.90;;;;;;5030426;28;20159;-70
2022/09/21 09:01:19;;;;;;;17.65;3.78;;;16.60;99.90;;;;;;5020257;28;20137;-69
2022/09/21 09:04:12;;;;;;;12.82;4.47;;;16.90;99.90;;;;;;5006649;28;20068;-70
2022/09/21 09:07:10;;;;;;;9.80;4.03;;;16.90;99.90;;;;;;5020652;28;20026;-69
2022/09/21 09:10:01;;;;;;;8.80;3.72;;;16.70;99.90;;;;;;5012125;28;20072;-69
2022/09/21 09:12:55;;;;;;;13.13;3.87;;;16.90;99.90;;;;;;5018449;28;20125;-69
2022/09/21 09:15:59;;;;;;;12.65;4.03;;;17.10;99.90;;;;;;5015767;28;20037;-69
2022/09/21 09:18:50;;;;;;;12.40;3.90;;;17.60;99.90;;;;;;5011168;28;20022;-69
2022/09/21 09:21:18;;;;;;;17.88;4.45;;;17.80;99.90;;;;;;5016611;28;20045;-69
2022/09/21 09:24:26;;;;;;;14.25;3.72;;;17.20;99.90;;;;;;5022041;28;20029;-69
2022/09/21 09:26:59;;;;;;;13.00;2.85;;;17.20;99.90;;;;;;5009500;28;20034;-69
2022/09/21 09:30:04;;;;;;;15.82;3.38;;;17.50;99.90;;;;;;5008312;28;20129;-69
2022/09/21 09:32:56;;;;;;;13.40;3.65;;;17.80;99.90;;;;;;5011779;28;20026;-69
2022/09/21 09:35:34;;;;;;;12.13;3.35;;;18.30;99.90;;;;;;5031720;28;20099;-69
2022/09/21 09:38:37;;;;;;;10.18;2.78;;;18.70;99.90;;;;;;5032606;28;20160;-70
2022/09/21 09:41:36;;;;;;;12.27;2.38;;;18.40;99.90;;;;;;5031390;28;20041;-70
2022/09/21 09:44:17;;;;;;;4.25;1.92;;;18.50;99.90;;;;;;5018966;28;20026;-69
2022/09/21 09:47:02;;;;;;;10.20;2.03;;;18.50;99.90;;;;;;5023925;28;20030;-70
2022/09/21 09:49:38;;;;;;;8.10;1.85;;;18.40;99.90;;;;;;5019273;28;20156;-69
2022/09/21 09:52:07;;;;;;;6.93;1.80;;;18.40;99.90;;;;;;5015652;28;20042;-69
2022/09/21 09:54:34;;;;;;;6.82;1.85;;;18.50;99.90;;;;;;5015653;28;20612;-69
2022/09/21 09:57:04;;;;;;;13.15;2.75;;;18.90;99.90;;;;;;5014162;28;20025;-70
2022/09/21 09:59:51;;;;;;;6.13;2.20;;;19.30;99.90;;;;;;5018476;28;20682;-69
2022/09/21 10:02:27;;;;;;;12.50;2.08;;;19.30;99.90;;;;;;5017200;28;20060;-69
2022/09/21 10:04:54;;;;;;;6.57;2.22;;;19.50;99.90;;;;;;5016231;28;20030;-69
2022/09/21 10:07:31;;;;;;;10.15;1.95;;;19.70;99.90;;;;;;5015093;28;20033;-69
2022/09/21 10:09:57;;;;;;;9.23;2.67;;;19.40;99.90;;;;;;5012189;28;20064;-70
2022/09/21 10:12:26;;;;;;;7.30;1.90;;;19.70;99.90;;;;;;5018345;28;20045;-68
2022/09/21 10:14:55;;;;;;;9.25;2.10;;;18.90;99.70;;;;;;5014031;28;20108;-70
2022/09/21 10:17:23;;;;;;;14.15;2.65;;;19.50;99.10;;;;;;5016442;28;20030;-68
2022/09/21 10:19:59;;;;;;;12.93;1.95;;;19.40;99.60;;;;;;5013849;28;20036;-69
2022/09/21 10:22:27;;;;;;;6.30;1.92;;;19.40;99.80;;;;;;5021745;28;20026;-69
2022/09/21 10:24:55;;;;;;;7.68;2.30;;;19.00;99.20;;;;;;5018877;28;20025;-69
2022/09/21 10:27:33;;;;;;;12.20;1.92;;;19.00;99.90;;;;;;5012546;28;20022;-68
2022/09/21 10:29:59;;;;;;;12.02;1.83;;;19.60;99.90;;;;;;5013684;28;20034;-71
2022/09/21 10:32:27;;;;;;;7.85;1.38;;;19.90;99.10;;;;;;5016161;28;20443;-70
2022/09/21 10:35:06;;;;;;;6.07;1.70;;;19.90;99.20;;;;;;5035781;28;20040;-68
2022/09/21 10:37:36;;;;;;;10.32;1.98;;;20.00;97.80;;;;;;5034534;28;20049;-70
2022/09/21 10:40:03;;;;;;;11.40;1.48;;;19.60;97.70;;;;;;5035429;28;20036;-70
2022/09/21 10:42:41;;;;;;;5.88;2.13;;;19.90;97.80;;;;;;5035514;28;20536;-69
2022/09/21 10:45:17;;;;;;;9.23;1.10;;;20.00;96.90;;;;;;5026921;28;20057;-69
2022/09/21 10:47:47;;;;;;;9.27;1.70;;;20.60;93.30;;;;;;5035578;28;20044;-70
2022/09/21 10:50:42;;;;;;;7.90;1.33;;;20.80;92.50;;;;;;5035576;28;20064;-70
2022/09/21 10:53:08;;;;;;;6.38;1.02;;;21.50;91.30;;;;;;5026780;28;20034;-70
2022/09/21 10:55:40;;;;;;;2.45;0.60;;;21.50;91.50;;;;;;5035222;28;20116;-70
2022/09/21 10:58:11;;;;;;;7.15;0.95;;;21.40;90.80;;;;;;5034316;28;20021;-70
2022/09/21 11:00:56;;;;;;;5.95;1.10;;;21.30;91.30;;;;;;5035186;28;20124;-70
2022/09/21 11:03:50;;;;;;;8.55;1.40;;;21.00;92.90;;;;;;5034956;28;20037;-70
2022/09/21 11:06:36;;;;;;;6.53;1.33;;;20.50;92.50;;;;;;5035242;28;20110;-69
2022/09/21 11:09:21;;;;;;;6.03;1.50;;;20.20;95.10;;;;;;5009569;28;20367;-70
2022/09/21 11:12:00;;;;;;;5.00;0.85;;;20.50;94.60;;;;;;5034733;28;20040;-69
2022/09/21 11:15:03;;;;;;;3.60;2.22;;;20.20;93.40;;;;;;5032396;28;20037;-69
2022/09/21 11:17:52;;;;;;;9.35;2.58;;;19.80;94.80;;;;;;5016184;28;20026;-69
2022/09/21 11:20:35;;;;;;;5.35;1.65;;;19.30;97.30;;;;;;5033979;28;20053;-69
2022/09/21 11:23:25;;;;;;;5.60;1.40;;;19.80;96.10;;;;;;5034640;28;20075;-70
2022/09/21 11:26:16;;;;;;;18.45;3.03;;;20.50;94.50;;;;;;5034562;28;20026;-70
2022/09/21 11:28:48;;;;;;;8.80;1.75;;;20.40;94.70;;;;;;5023635;28;20029;-69
2022/09/21 11:31:24;;;;;;;14.18;1.50;;;20.80;94.60;;;;;;5035053;28;20436;-70
2022/09/21 11:34:18;;;;;;;5.72;2.00;;;21.20;93.30;;;;;;5033735;28;20029;-70
2022/09/21 11:37:09;;;;;;;6.78;1.70;;;21.30;92.90;;;;;;5035043;28;20059;-70
2022/09/21 11:40:06;;;;;;;5.65;1.45;;;21.50;93.50;;;;;;5035425;28;20045;-65
2022/09/21 11:42:48;;;;;;;8.27;1.20;;;20.80;92.80;;;;;;5023037;28;20038;-69
2022/09/21 11:45:44;;;;;;;6.30;1.50;;;21.30;92.10;;;;;;5014598;28;20112;-68
2022/09/21 11:48:21;;;;;;;4.40;1.60;;;20.70;93.30;;;;;;5011308;28;20044;-69
2022/09/21 11:51:16;;;;;;;7.30;2.38;;;21.30;93.60;;;;;;5015361;28;20096;-69
2022/09/21 11:54:03;;;;;;;5.47;1.38;;;21.30;93.20;;;;;;5000428;28;20101;-68
2022/09/21 11:57:07;;;;;;;7.32;1.98;;;20.60;93.10;;;;;;5010391;28;20022;-68
2022/09/21 11:59:48;;;;;;;7.60;1.42;;;19.70;94.50;;;;;;5013848;28;20095;-69
2022/09/21 12:02:49;;;;;;;6.68;1.52;;;20.30;94.30;;;;;;5015428;28;20076;-68
2022/09/21 12:05:27;;;;;;;9.30;1.25;;;20.80;93.90;;;;;;5012547;28;20037;-68
2022/09/21 12:08:21;;;;;;;8.40;1.92;;;20.10;92.70;;;;;;5015262;28;20037;-68
2022/09/21 12:11:12;;;;;;;4.82;1.10;;;19.80;94.70;;;;;;5015089;28;20037;-69
2022/09/21 12:14:02;;;;;;;5.05;1.23;;;20.20;95.30;;;;;;5011284;28;20013;-68
2022/09/21 12:17:04;;;;;;;6.15;1.30;;;20.30;93.80;;;;;;5014989;28;20018;-68
2022/09/21 12:19:50;;;;;;;4.30;1.23;;;19.70;94.30;;;;;;5004789;28;20042;-68
2022/09/21 12:22:25;;;;;;;3.58;1.02;;;19.80;95.20;;;;;;5014747;28;20026;-69
2022/09/21 12:25:16;;;;;;;4.32;1.23;;;20.30;94.30;;;;;;5014611;28;20034;-68
2022/09/21 12:27:48;;;;;;;3.40;1.20;;;20.20;94.10;;;;;;4999518;28;20038;-68
2022/09/21 12:30:19;;;;;;;6.50;1.33;;;20.10;93.60;;;;;;5014809;28;20033;-68
2022/09/21 12:33:08;;;;;;;4.38;1.17;;;20.10;92.60;;;;;;5016187;28;20034;-68
2022/09/21 12:35:38;;;;;;;8.98;1.40;;;20.00;94.20;;;;;;5033354;28;20037;-69
2022/09/21 12:38:33;;;;;;;11.07;1.50;;;21.50;91.80;;;;;;5034042;28;20080;-68
2022/09/21 12:41:15;;;;;;;5.10;1.17;;;22.80;88.40;;;;;;5029526;28;20053;-69
2022/09/21 12:43:48;;;;;;;9.85;1.10;;;22.20;88.40;;;;;;5034376;28;20497;-69
2022/09/21 12:46:34;;;;;;;4.72;1.27;;;23.60;88.30;;;;;;5034387;28;20029;-69
2022/09/21 12:49:07;;;;;;;6.63;1.30;;;24.70;83.40;;;;;;5034390;28;20065;-69
2022/09/21 12:51:40;;;;;;;6.25;1.20;;;23.20;83.80;;;;;;5034193;28;20031;-69
2022/09/21 12:54:15;;;;;;;3.95;1.10;;;24.60;84.50;;;;;;5033909;28;20037;-70
2022/09/21 12:56:51;;;;;;;4.05;0.70;;;27.10;81.40;;;;;;5033076;28;20018;-69
2022/09/21 12:59:26;;;;;;;8.23;1.25;;;26.70;79.90;;;;;;5032779;28;20037;-70
2022/09/21 13:01:54;;;;;;;5.13;1.10;;;26.30;79.60;;;;;;5034116;28;20083;-69
2022/09/21 13:04:52;;;;;;;2.28;0.75;;;26.60;76.50;;;;;;5033953;28;20079;-69
2022/09/21 13:07:29;;;;;;;2.67;0.80;;;27.90;77.00;;;;;;5033743;28;20042;-70
2022/09/21 13:09:56;;;;;;;5.32;1.27;;;27.70;75.60;;;;;;5033905;28;20482;-70
2022/09/21 13:12:46;;;;;;;5.55;1.10;;;27.30;75.40;;;;;;5033803;28;20045;-69
2022/09/21 13:15:43;;;;;;;8.75;1.13;;;26.20;77.50;;;;;;5033143;28;20052;-69
2022/09/21 13:18:36;;;;;;;8.18;1.58;;;24.70;77.60;;;;;;5032981;28;20049;-69
2022/09/21 13:21:25;;;;;;;2.45;0.93;;;23.70;77.20;;;;;;5030323;28;20387;-69